createdAt,value
2014-06-18T00:00:16.326Z,72.07
2014-06-18T00:01:21.016Z,71.83
2014-06-18T00:02:25.690Z,72.11
2014-06-18T00:03:30.676Z,72.41
2014-06-18T00:04:35.365Z,72.28
2014-06-18T00:05:40.054Z,71.5
2014-06-18T00:06:44.744Z,71.09
2014-06-18T00:07:49.418Z,70.92
2014-06-18T00:08:54.107Z,71.08
2014-06-18T00:09:59.094Z,71.2
2014-06-18T00:11:03.783Z,71.8
2014-06-18T00:12:08.473Z,71.39
2014-06-18T00:13:13.459Z,71.95
2014-06-18T00:14:18.445Z,71.85
2014-06-18T00:15:23.137Z,71.68
2014-06-18T00:16:27.811Z,71.62
2014-06-18T00:17:32.796Z,71.83
2014-06-18T00:18:37.486Z,71.54
2014-06-18T00:19:42.176Z,72.35
2014-06-18T00:20:46.850Z,71.65
2014-06-18T00:21:51.836Z,71.48
2014-06-18T00:22:56.823Z,71.46
2014-06-18T00:24:01.497Z,71.37
2014-06-18T00:25:06.186Z,71.18
2014-06-18T00:26:10.876Z,71.15
2014-06-18T00:27:15.551Z,70.96
2014-06-18T00:28:20.537Z,70.69
2014-06-18T00:29:25.210Z,70.36
2014-06-18T00:30:30.196Z,70.61
2014-06-18T00:31:35.183Z,70.87
2014-06-18T00:32:39.856Z,70.96
2014-06-18T00:33:44.546Z,70.61
2014-06-18T00:34:49.235Z,70.35
2014-06-18T00:35:54.206Z,71.59
2014-06-18T00:36:58.896Z,71.19
2014-06-18T00:38:03.570Z,70.68
2014-06-18T00:39:08.555Z,71.03
2014-06-18T00:40:13.244Z,71.23
2014-06-18T00:41:17.919Z,71.69
2014-06-18T00:42:22.611Z,71.43
2014-06-18T00:43:27.582Z,71.09
2014-06-18T00:44:31.584Z,71.29
2014-06-18T00:45:36.570Z,71.45
2014-06-18T00:46:41.244Z,71.32
2014-06-18T00:47:45.948Z,71.23
2014-06-18T00:48:50.622Z,71.45
2014-06-18T00:49:55.310Z,71.84
2014-06-18T00:50:59.984Z,71.74
2014-06-18T00:52:04.675Z,71.58
2014-06-18T00:53:09.364Z,71.29
2014-06-18T00:54:14.037Z,71.58
2014-06-18T00:55:19.023Z,71.77
2014-06-18T00:56:23.997Z,71.94
2014-06-18T00:57:28.686Z,72.43
2014-06-18T00:58:33.672Z,72.73
2014-06-18T00:59:38.644Z,72.68
2014-06-18T01:00:43.332Z,72.43
2014-06-18T01:01:48.006Z,71.12
2014-06-18T01:02:52.696Z,71.16
2014-06-18T01:03:57.448Z,71.76
2014-06-18T01:05:02.122Z,71.04
2014-06-18T01:06:06.811Z,70.46
2014-06-18T01:07:11.485Z,71.45
2014-06-18T01:08:15.487Z,71.87
2014-06-18T01:09:20.175Z,71.44
2014-06-18T01:10:24.851Z,70.85
2014-06-18T01:11:29.541Z,70.77
2014-06-18T01:12:34.215Z,70.54
2014-06-18T01:13:38.904Z,70.58
2014-06-18T01:14:43.594Z,70.73
2014-06-18T01:15:48.268Z,70.5
2014-06-18T01:16:52.958Z,70.18
2014-06-18T01:17:57.632Z,70.32
2014-06-18T01:19:02.321Z,70.08
2014-06-18T01:20:07.011Z,70.21
2014-06-18T01:21:11.685Z,70.41
2014-06-18T01:22:16.374Z,70.33
2014-06-18T01:23:21.048Z,70.52
2014-06-18T01:24:25.738Z,70.24
2014-06-18T01:25:30.427Z,70.35
2014-06-18T01:26:35.117Z,70.89
2014-06-18T01:27:39.806Z,70.58
2014-06-18T01:28:44.496Z,70.56
2014-06-18T01:29:49.170Z,70.41
2014-06-18T01:30:54.155Z,69.93
2014-06-18T01:31:59.126Z,69.76
2014-06-18T01:33:03.815Z,69.47
2014-06-18T01:34:08.491Z,69.94
2014-06-18T01:35:13.181Z,70.56
2014-06-18T01:36:17.854Z,70.98
2014-06-18T01:37:22.544Z,70.86
2014-06-18T01:38:27.218Z,70.8
2014-06-18T01:39:32.204Z,70.9
2014-06-18T01:40:36.878Z,71
2014-06-18T01:41:41.568Z,71.76
2014-06-18T01:42:46.240Z,71.72
2014-06-18T01:43:51.228Z,71.44
2014-06-18T01:44:55.902Z,70.94
2014-06-18T01:46:00.590Z,71.25
2014-06-18T01:47:05.281Z,71.01
2014-06-18T01:48:09.954Z,70.86
2014-06-18T01:49:14.643Z,70.75
2014-06-18T01:50:19.317Z,70.74
2014-06-18T01:51:24.008Z,70.76
2014-06-18T01:52:28.682Z,70.55
2014-06-18T01:53:33.371Z,70.45
2014-06-18T01:54:38.061Z,70.77
2014-06-18T01:55:42.735Z,71.38
2014-06-18T01:56:47.424Z,72.02
2014-06-18T01:57:52.411Z,71.95
2014-06-18T01:58:57.101Z,72.12
2014-06-18T02:00:01.790Z,72.01
2014-06-18T02:01:06.761Z,71.94
2014-06-18T02:02:11.449Z,71.68
2014-06-18T02:03:16.123Z,72.18
2014-06-18T02:04:20.813Z,71.81
2014-06-18T02:05:25.489Z,71.27
2014-06-18T02:06:30.178Z,71.87
2014-06-18T02:07:34.851Z,71.92
2014-06-18T02:08:39.837Z,71.95
2014-06-18T02:09:44.511Z,71.96
2014-06-18T02:10:49.201Z,71.67
2014-06-18T02:11:53.875Z,72.18
2014-06-18T02:12:58.174Z,71.92
2014-06-18T02:14:03.161Z,71.72
2014-06-18T02:15:07.146Z,71.14
2014-06-18T02:16:11.836Z,71.6
2014-06-18T02:17:16.822Z,71.2
2014-06-18T02:18:21.495Z,71.23
2014-06-18T02:19:26.483Z,71.54
2014-06-18T02:20:31.455Z,71.71
2014-06-18T02:21:36.145Z,71.75
2014-06-18T02:22:40.817Z,71.55
2014-06-18T02:23:45.508Z,71.79
2014-06-18T02:24:50.479Z,71.55
2014-06-18T02:25:55.168Z,71.87
2014-06-18T02:27:00.155Z,71.38
2014-06-18T02:28:04.829Z,71.32
2014-06-18T02:29:09.519Z,71.9
2014-06-18T02:30:14.192Z,71.14
2014-06-18T02:31:19.179Z,72.09
2014-06-18T02:32:23.853Z,71.89
2014-06-18T02:33:28.838Z,71.5
2014-06-18T02:34:33.825Z,72.23
2014-06-18T02:35:38.499Z,71.6
2014-06-18T02:36:43.486Z,71.34
2014-06-18T02:37:48.176Z,71.35
2014-06-18T02:38:52.848Z,71.62
2014-06-18T02:39:57.538Z,70.95
2014-06-18T02:41:02.212Z,71.09
2014-06-18T02:42:06.901Z,70.49
2014-06-18T02:43:11.575Z,69.83
2014-06-18T02:44:16.858Z,70.09
2014-06-18T02:45:21.844Z,69.96
2014-06-18T02:46:26.520Z,71.01
2014-06-18T02:47:31.506Z,71.02
2014-06-18T02:48:36.197Z,71.27
2014-06-18T02:49:40.198Z,71.44
2014-06-18T02:50:45.168Z,72.25
2014-06-18T02:51:49.858Z,71.6
2014-06-18T02:52:54.547Z,70.9
2014-06-18T02:53:59.534Z,70.65
2014-06-18T02:55:04.520Z,70.49
2014-06-18T02:56:09.194Z,70.72
2014-06-18T02:57:13.883Z,70.69
2014-06-18T02:58:18.572Z,70.66
2014-06-18T02:59:23.261Z,70.16
2014-06-18T03:00:27.937Z,70.26
2014-06-18T03:01:32.627Z,70.49
2014-06-18T03:02:37.317Z,70.93
2014-06-18T03:03:41.991Z,70.93
2014-06-18T03:04:46.680Z,70.99
2014-06-18T03:05:51.370Z,71.05
2014-06-18T03:06:56.059Z,71.4
2014-06-18T03:08:01.046Z,71.87
2014-06-18T03:09:05.736Z,71.57
2014-06-18T03:10:10.448Z,71.23
2014-06-18T03:11:15.476Z,71.49
2014-06-18T03:12:20.208Z,71.96
2014-06-18T03:13:24.940Z,72.18
2014-06-18T03:14:29.946Z,71.87
2014-06-18T03:15:34.946Z,72.35
2014-06-18T03:16:39.946Z,72.15
2014-06-18T03:17:44.651Z,71.48
2014-06-18T03:18:49.338Z,71.3
2014-06-18T03:19:54.039Z,70.9
2014-06-18T03:20:58.734Z,70.8
2014-06-18T03:22:03.428Z,70.95
2014-06-18T03:23:08.107Z,70.55
2014-06-18T03:24:12.802Z,70.99
2014-06-18T03:25:17.495Z,70.92
2014-06-18T03:26:22.483Z,71.28
2014-06-18T03:27:27.476Z,71.89
2014-06-18T03:28:32.166Z,71.69
2014-06-18T03:29:37.155Z,71.73
2014-06-18T03:30:42.142Z,71.28
2014-06-18T03:31:47.128Z,71.05
2014-06-18T03:32:51.803Z,70.87
2014-06-18T03:33:56.493Z,71.09
2014-06-18T03:35:01.183Z,71.76
2014-06-18T03:36:06.154Z,72.14
2014-06-18T03:37:10.844Z,71.72
2014-06-18T03:38:15.830Z,71.53
2014-06-18T03:39:20.519Z,71.41
2014-06-18T03:40:25.193Z,71.56
2014-06-18T03:41:29.885Z,71.28
2014-06-18T03:42:34.559Z,71.3
2014-06-18T03:43:39.247Z,71.82
2014-06-18T03:44:43.921Z,71.96
2014-06-18T03:45:48.611Z,71.78
2014-06-18T03:46:53.284Z,71.55
2014-06-18T03:47:57.974Z,71.29
2014-06-18T03:49:02.648Z,71.37
2014-06-18T03:50:07.337Z,71.42
2014-06-18T03:51:12.324Z,71.27
2014-06-18T03:52:16.998Z,71.14
2014-06-18T03:53:21.984Z,70.5
2014-06-18T03:54:26.658Z,70.98
2014-06-18T03:55:31.646Z,70.95
2014-06-18T03:56:36.616Z,71.11
2014-06-18T03:57:41.321Z,70.87
2014-06-18T03:58:45.995Z,71.64
2014-06-18T03:59:50.981Z,71.91
2014-06-18T04:00:55.655Z,71.96
2014-06-18T04:02:00.345Z,71.9
2014-06-18T04:03:05.315Z,72.47
2014-06-18T04:04:10.005Z,72.12
2014-06-18T04:05:14.976Z,71.96
2014-06-18T04:06:19.961Z,71.87
2014-06-18T04:07:24.635Z,71.74
2014-06-18T04:08:29.623Z,71.6
2014-06-18T04:09:34.594Z,71.59
2014-06-18T04:10:39.284Z,71.63
2014-06-18T04:11:44.254Z,71.37
2014-06-18T04:12:48.944Z,71.19
2014-06-18T04:13:53.633Z,71.26
2014-06-18T04:14:58.323Z,71.82
2014-06-18T04:16:03.293Z,71.42
2014-06-18T04:17:08.280Z,70.84
2014-06-18T04:18:12.954Z,71.33
2014-06-18T04:19:17.643Z,71.44
2014-06-18T04:20:22.317Z,71.38
2014-06-18T04:21:27.007Z,71.71
2014-06-18T04:22:31.978Z,71.76
2014-06-18T04:23:35.980Z,71.46
2014-06-18T04:24:40.670Z,71.73
2014-06-18T04:25:45.656Z,71.7
2014-06-18T04:26:50.330Z,71.68
2014-06-18T04:27:55.020Z,71.51
2014-06-18T04:28:59.694Z,71.24
2014-06-18T04:30:04.383Z,71.47
2014-06-18T04:31:09.354Z,71.6
2014-06-18T04:32:14.042Z,71.61
2014-06-18T04:33:18.732Z,71.71
2014-06-18T04:34:23.407Z,71.97
2014-06-18T04:35:28.410Z,71.69
2014-06-18T04:36:33.085Z,71.32
2014-06-18T04:37:37.773Z,71.03
2014-06-18T04:38:42.447Z,71.56
2014-06-18T04:39:47.136Z,71.65
2014-06-18T04:40:51.809Z,71.77
2014-06-18T04:41:56.500Z,71.03
2014-06-18T04:43:01.205Z,71.27
2014-06-18T04:44:05.879Z,70.92
2014-06-18T04:45:10.568Z,71.17
2014-06-18T04:46:15.242Z,70.9
2014-06-18T04:47:19.932Z,70.52
2014-06-18T04:48:24.606Z,71.05
2014-06-18T04:49:28.610Z,70.48
2014-06-18T04:50:33.298Z,70.36
2014-06-18T04:51:38.269Z,69.57
2014-06-18T04:52:42.271Z,68.81
2014-06-18T04:53:47.242Z,67.92
2014-06-18T04:54:51.931Z,67.96
2014-06-18T04:55:56.605Z,67.81
2014-06-18T04:57:01.294Z,67.99
2014-06-18T04:58:06.281Z,67.29
2014-06-18T04:59:10.954Z,67.63
2014-06-18T05:00:15.644Z,67.63
2014-06-18T05:01:20.631Z,67.21
2014-06-18T05:02:25.303Z,67.28
2014-06-18T05:03:30.292Z,66.87
2014-06-18T05:04:34.966Z,66.4
2014-06-18T05:05:39.655Z,65.85
2014-06-18T05:06:44.642Z,65.71
2014-06-18T05:07:49.315Z,65.81
2014-06-18T05:08:54.005Z,65.94
2014-06-18T05:09:58.991Z,65.37
2014-06-18T05:11:03.961Z,65.7
2014-06-18T05:12:07.963Z,65.44
2014-06-18T05:13:12.653Z,65.04
2014-06-18T05:14:17.343Z,65.05
2014-06-18T05:15:22.626Z,64.86
2014-06-18T05:16:27.596Z,64.5
2014-06-18T05:17:32.288Z,64.84
2014-06-18T05:18:37.274Z,64.63
2014-06-18T05:19:41.963Z,64.61
2014-06-18T05:20:46.934Z,63.6
2014-06-18T05:21:51.624Z,63.38
2014-06-18T05:22:56.611Z,64.35
2014-06-18T05:24:01.301Z,64.56
2014-06-18T05:25:06.287Z,64.4
2014-06-18T05:26:10.960Z,63.02
2014-06-18T05:27:15.650Z,62.71
2014-06-18T05:28:20.637Z,63.49
2014-06-18T05:29:25.326Z,63.12
2014-06-18T05:30:30.000Z,62.05
2014-06-18T05:31:34.689Z,61.58
2014-06-18T05:32:39.378Z,61.87
2014-06-18T05:33:44.068Z,61.56
2014-06-18T05:34:48.757Z,61.13
2014-06-18T05:35:53.432Z,62.89
2014-06-18T05:36:58.120Z,62.05
2014-06-18T05:38:02.810Z,63.8
2014-06-18T05:39:07.485Z,63.17
2014-06-18T05:40:12.174Z,61.22
2014-06-18T05:41:16.863Z,60.32
2014-06-18T05:42:21.537Z,60.17
2014-06-18T05:43:26.226Z,61.47
2014-06-18T05:44:30.917Z,60.9
2014-06-18T05:45:35.606Z,61.35
2014-06-18T05:46:40.296Z,61.69
2014-06-18T05:47:45.033Z,59.61
2014-06-18T05:48:50.018Z,59.16
2014-06-18T05:49:55.005Z,59.99
2014-06-18T05:50:59.991Z,60.27
2014-06-18T05:52:04.665Z,61.15
2014-06-18T05:53:09.355Z,57.72
2014-06-18T05:54:14.044Z,56.4
2014-06-18T05:55:18.734Z,55.39
2014-06-18T05:56:23.423Z,57.72
2014-06-18T05:57:28.097Z,58.69
2014-06-18T05:58:32.788Z,57.97
2014-06-18T05:59:36.790Z,57.39
2014-06-18T06:00:41.776Z,56.82
2014-06-18T06:01:46.450Z,56.42
2014-06-18T06:02:51.436Z,56.87
2014-06-18T06:03:56.126Z,56.02
2014-06-18T06:05:00.815Z,55.83
2014-06-18T06:06:05.505Z,55.44
2014-06-18T06:07:10.194Z,55.43
2014-06-18T06:08:14.884Z,56.71
2014-06-18T06:09:19.870Z,55.17
2014-06-18T06:10:24.558Z,53.05
2014-06-18T06:11:29.248Z,49.92
2014-06-18T06:12:33.252Z,47.35
2014-06-18T06:13:37.941Z,43.84
2014-06-18T06:14:42.631Z,41.57
2014-06-18T06:15:47.336Z,40.48
2014-06-18T06:16:52.026Z,38.56
2014-06-18T06:17:56.715Z,38.59
2014-06-18T06:19:01.405Z,36.91
2014-06-18T06:20:06.094Z,36.93
2014-06-18T06:21:10.784Z,36.71
2014-06-18T06:22:15.473Z,36.3
2014-06-18T06:23:20.163Z,35.2
2014-06-18T06:24:24.852Z,34.11
2014-06-18T06:25:29.542Z,33.83
2014-06-18T06:26:34.232Z,33.47
2014-06-18T06:27:38.922Z,33.52
2014-06-18T06:28:43.611Z,34.66
2014-06-18T06:29:48.316Z,36.14
2014-06-18T06:30:53.318Z,34.65
2014-06-18T06:31:58.023Z,33.53
2014-06-18T06:33:03.010Z,33.04
2014-06-18T06:34:07.699Z,32.91
2014-06-18T06:35:12.404Z,34.86
2014-06-18T06:36:17.095Z,37.8
2014-06-18T06:37:21.784Z,40.27
2014-06-18T06:38:26.489Z,42.21
2014-06-18T06:39:31.180Z,43.86
2014-06-18T06:40:36.165Z,44.9
2014-06-18T06:41:40.855Z,45.33
2014-06-18T06:42:45.560Z,46.95
2014-06-18T06:43:50.249Z,46.91
2014-06-18T06:44:54.939Z,48.28
2014-06-18T06:45:59.628Z,49.09
2014-06-18T06:47:04.318Z,50.09
2014-06-18T06:48:08.320Z,49.89
2014-06-18T06:49:13.322Z,50.52
2014-06-18T06:50:18.011Z,49.29
2014-06-18T06:51:22.700Z,51.12
2014-06-18T06:52:27.389Z,52.2
2014-06-18T06:53:32.081Z,52.72
2014-06-18T06:54:37.083Z,51.5
2014-06-18T06:55:41.757Z,50.9
2014-06-18T06:56:46.446Z,52.03
2014-06-18T06:57:51.136Z,51.61
2014-06-18T06:58:55.825Z,51.43
2014-06-18T07:00:00.515Z,52.17
2014-06-18T07:01:05.204Z,55.62
2014-06-18T07:02:09.878Z,55.17
2014-06-18T07:03:14.568Z,56.49
2014-06-18T07:04:19.257Z,53.54
2014-06-18T07:05:23.947Z,54.01
2014-06-18T07:06:28.620Z,54.83
2014-06-18T07:07:33.311Z,54.93
2014-06-18T07:08:38.001Z,55.97
2014-06-18T07:09:42.690Z,56.18
2014-06-18T07:10:47.676Z,60.55
2014-06-18T07:11:52.350Z,57.98
2014-06-18T07:12:57.040Z,58.18
2014-06-18T07:14:01.728Z,56.02
2014-06-18T07:15:06.419Z,54.79
2014-06-18T07:16:11.093Z,55.31
2014-06-18T07:17:15.781Z,55.46
2014-06-18T07:18:20.472Z,54.49
2014-06-18T07:19:25.162Z,53.63
2014-06-18T07:20:30.133Z,53.1
2014-06-18T07:21:34.822Z,52.62
2014-06-18T07:22:39.512Z,53.36
2014-06-18T07:23:44.201Z,53.59
2014-06-18T07:24:48.891Z,53.22
2014-06-18T07:25:53.565Z,52.92
2014-06-18T07:26:58.551Z,52.58
2014-06-18T07:28:03.240Z,52.09
2014-06-18T07:29:07.929Z,51.71
2014-06-18T07:30:12.619Z,53.15
2014-06-18T07:31:17.309Z,53.53
2014-06-18T07:32:21.295Z,50.7
2014-06-18T07:33:25.984Z,49.17
2014-06-18T07:34:30.674Z,47.97
2014-06-18T07:35:35.365Z,47.53
2014-06-18T07:36:40.055Z,48.81
2014-06-18T07:37:44.057Z,49.72
2014-06-18T07:38:48.746Z,49.55
2014-06-18T07:39:53.436Z,48.91
2014-06-18T07:40:58.109Z,48.35
2014-06-18T07:42:02.814Z,49.07
2014-06-18T07:43:07.504Z,48.85
2014-06-18T07:44:12.195Z,51.48
2014-06-18T07:45:17.181Z,53.45
2014-06-18T07:46:21.869Z,52.49
2014-06-18T07:47:26.560Z,52.42
2014-06-18T07:48:31.249Z,54.66
2014-06-18T07:49:35.923Z,52.7
2014-06-18T07:50:40.613Z,52.22
2014-06-18T07:51:45.302Z,51.38
2014-06-18T07:52:49.304Z,51.19
2014-06-18T07:53:53.994Z,51.21
2014-06-18T07:54:58.682Z,50.44
2014-06-18T07:56:03.654Z,50.81
2014-06-18T07:57:08.639Z,51.96
2014-06-18T07:58:13.329Z,53.16
2014-06-18T07:59:18.315Z,51.9
2014-06-18T08:00:23.302Z,51.26
2014-06-18T08:01:28.007Z,50.93
2014-06-18T08:02:32.698Z,51.08
2014-06-18T08:03:37.669Z,50.43
2014-06-18T08:04:42.359Z,50.98
2014-06-18T08:05:47.047Z,50.36
2014-06-18T08:06:52.034Z,50.48
2014-06-18T08:07:56.724Z,50.43
2014-06-18T08:09:01.412Z,52.25
2014-06-18T08:10:06.399Z,52.66
2014-06-18T08:11:11.386Z,54.02
2014-06-18T08:12:16.059Z,52.64
2014-06-18T08:13:20.749Z,52.31
2014-06-18T08:14:25.735Z,52.02
2014-06-18T08:15:30.424Z,51.33
2014-06-18T08:16:35.115Z,50.73
2014-06-18T08:17:39.790Z,50.42
2014-06-18T08:18:44.479Z,51.08
2014-06-18T08:19:49.169Z,53.05
2014-06-18T08:20:53.857Z,51.93
2014-06-18T08:21:58.845Z,50.2
2014-06-18T08:23:03.534Z,50.2
2014-06-18T08:24:08.224Z,51.34
2014-06-18T08:25:13.194Z,51.07
2014-06-18T08:26:17.883Z,50.87
2014-06-18T08:27:22.869Z,52.12
2014-06-18T08:28:27.559Z,51.69
2014-06-18T08:29:32.247Z,51.3
2014-06-18T08:30:37.220Z,52.02
2014-06-18T08:31:41.910Z,52.14
2014-06-18T08:32:46.897Z,52.57
2014-06-18T08:33:51.585Z,53.07
2014-06-18T08:34:56.275Z,53.03
2014-06-18T08:36:00.965Z,50.71
2014-06-18T08:37:05.654Z,50.45
2014-06-18T08:38:10.343Z,50.92
2014-06-18T08:39:15.017Z,51.54
2014-06-18T08:40:19.722Z,50.16
2014-06-18T08:41:24.396Z,50.75
2014-06-18T08:42:29.086Z,51.12
2014-06-18T08:43:33.777Z,51.24
2014-06-18T08:44:38.466Z,51.93
2014-06-18T08:45:43.452Z,50.9
2014-06-18T08:46:48.439Z,50.37
2014-06-18T08:47:53.128Z,48.69
2014-06-18T08:48:57.818Z,50.11
2014-06-18T08:50:02.507Z,50.12
2014-06-18T08:51:07.493Z,50.23
2014-06-18T08:52:12.183Z,49.37
2014-06-18T08:53:16.872Z,49.78
2014-06-18T08:54:21.562Z,49.15
2014-06-18T08:55:26.250Z,51.3
2014-06-18T08:56:30.940Z,49.7
2014-06-18T08:57:35.631Z,50.6
2014-06-18T08:58:40.321Z,52.25
2014-06-18T08:59:45.010Z,51.81
2014-06-18T09:00:49.029Z,49.72
2014-06-18T09:01:53.718Z,49.14
2014-06-18T09:02:58.407Z,48.7
2014-06-18T09:04:03.097Z,48.38
2014-06-18T09:05:07.786Z,48.38
2014-06-18T09:06:12.476Z,48.8
2014-06-18T09:07:17.462Z,48.22
2014-06-18T09:08:22.151Z,48.58
2014-06-18T09:09:26.841Z,48.63
2014-06-18T09:10:31.530Z,49.41
2014-06-18T09:11:36.221Z,49.01
2014-06-18T09:12:40.910Z,48.98
2014-06-18T09:13:45.601Z,49.55
2014-06-18T09:14:50.290Z,47.65
2014-06-18T09:15:54.995Z,48.11
2014-06-18T09:16:59.700Z,48.15
2014-06-18T09:18:04.389Z,48.35
2014-06-18T09:19:09.079Z,49.13
2014-06-18T09:20:13.767Z,48.11
2014-06-18T09:21:18.755Z,47.99
2014-06-18T09:22:23.443Z,47.55
2014-06-18T09:23:28.133Z,47.07
2014-06-18T09:24:32.823Z,46.77
2014-06-18T09:25:37.810Z,47.27
2014-06-18T09:26:42.798Z,48.38
2014-06-18T09:27:47.486Z,47.43
2014-06-18T09:28:52.176Z,46.31
2014-06-18T09:29:56.881Z,48.14
2014-06-18T09:31:01.570Z,48.55
2014-06-18T09:32:06.260Z,47.34
2014-06-18T09:33:10.949Z,46.09
2014-06-18T09:34:15.936Z,45.17
2014-06-18T09:35:20.624Z,46.06
2014-06-18T09:36:25.314Z,46.42
2014-06-18T09:37:30.003Z,47.21
2014-06-18T09:38:34.695Z,45.23
2014-06-18T09:39:39.385Z,44.97
2014-06-18T09:40:43.386Z,44.46
2014-06-18T09:41:48.076Z,45.62
2014-06-18T09:42:52.765Z,46.29
2014-06-18T09:43:57.767Z,44.29
2014-06-18T09:45:02.456Z,45.49
2014-06-18T09:46:07.146Z,44.79
2014-06-18T09:47:12.133Z,43.75
2014-06-18T09:48:16.822Z,43.54
2014-06-18T09:49:21.511Z,44.53
2014-06-18T09:50:26.200Z,43.53
2014-06-18T09:51:30.891Z,43.67
2014-06-18T09:52:35.582Z,43.74
2014-06-18T09:53:40.271Z,44.51
2014-06-18T09:54:45.257Z,44.47
2014-06-18T09:55:49.947Z,43.87
2014-06-18T09:56:54.636Z,43.18
2014-06-18T09:57:59.326Z,42.5
2014-06-18T09:59:04.015Z,41.99
2014-06-18T10:00:08.705Z,42.27
2014-06-18T10:01:13.706Z,42.82
2014-06-18T10:02:18.692Z,43.47
2014-06-18T10:03:23.382Z,44.59
2014-06-18T10:04:28.071Z,44.02
2014-06-18T10:05:32.760Z,44.5
2014-06-18T10:06:37.452Z,44.45
2014-06-18T10:07:42.141Z,44.11
2014-06-18T10:08:46.831Z,43.71
2014-06-18T10:09:51.816Z,43.96
2014-06-18T10:10:56.507Z,45.91
2014-06-18T10:12:01.196Z,45.64
2014-06-18T10:13:05.885Z,45.76
2014-06-18T10:14:10.574Z,45.27
2014-06-18T10:15:15.264Z,45.73
2014-06-18T10:16:19.953Z,47.17
2014-06-18T10:17:24.643Z,45.38
2014-06-18T10:18:29.332Z,44.14
2014-06-18T10:19:34.022Z,43.77
2014-06-18T10:20:39.010Z,43.75
2014-06-18T10:21:43.700Z,43.49
2014-06-18T10:22:48.389Z,41.63
2014-06-18T10:23:53.079Z,42.22
2014-06-18T10:24:57.767Z,42.53
2014-06-18T10:26:02.754Z,43.98
2014-06-18T10:27:07.443Z,42.68
2014-06-18T10:28:12.134Z,42.64
2014-06-18T10:29:16.822Z,43.61
2014-06-18T10:30:21.512Z,43.42
2014-06-18T10:31:26.498Z,44.53
2014-06-18T10:32:31.187Z,43.25
2014-06-18T10:33:35.879Z,43.69
2014-06-18T10:34:40.568Z,43.72
2014-06-18T10:35:45.258Z,45.52
2014-06-18T10:36:50.243Z,44.98
2014-06-18T10:37:54.934Z,44.62
2014-06-18T10:38:59.623Z,44.83
2014-06-18T10:40:04.313Z,44.32
2014-06-18T10:41:09.001Z,46.73
2014-06-18T10:42:13.691Z,46.35
2014-06-18T10:43:18.396Z,46.07
2014-06-18T10:44:23.382Z,45.14
2014-06-18T10:45:28.072Z,46.55
2014-06-18T10:46:32.746Z,45.71
2014-06-18T10:47:37.436Z,44.18
2014-06-18T10:48:42.424Z,44.57
2014-06-18T10:49:47.112Z,44.79
2014-06-18T10:50:51.803Z,45.34
2014-06-18T10:51:56.788Z,43.98
2014-06-18T10:53:01.477Z,43
2014-06-18T10:54:06.151Z,43.19
2014-06-18T10:55:10.841Z,42.9
2014-06-18T10:56:15.530Z,44.39
2014-06-18T10:57:20.220Z,44.21
2014-06-18T10:58:25.206Z,43.81
2014-06-18T10:59:29.896Z,43.36
2014-06-18T11:00:34.585Z,42.96
2014-06-18T11:01:39.277Z,42.22
2014-06-18T11:02:43.966Z,41.69
2014-06-18T11:03:48.655Z,42.03
2014-06-18T11:04:53.345Z,41.96
2014-06-18T11:05:58.034Z,42.2
2014-06-18T11:07:02.723Z,41.92
2014-06-18T11:08:07.710Z,42.88
2014-06-18T11:09:12.383Z,42.69
2014-06-18T11:10:17.073Z,42.03
2014-06-18T11:11:21.777Z,41.9
2014-06-18T11:12:26.451Z,41.68
2014-06-18T11:13:31.157Z,42.51
2014-06-18T11:14:35.847Z,41.53
2014-06-18T11:15:40.538Z,41.26
2014-06-18T11:16:45.524Z,41.93
2014-06-18T11:17:50.213Z,40.62
2014-06-18T11:18:54.903Z,40.91
2014-06-18T11:19:59.592Z,42.22
2014-06-18T11:21:04.578Z,40.79
2014-06-18T11:22:09.268Z,42.68
2014-06-18T11:23:13.270Z,42.17
2014-06-18T11:24:17.958Z,43.56
2014-06-18T11:25:22.649Z,42.25
2014-06-18T11:26:27.635Z,42.8
2014-06-18T11:27:31.636Z,41.33
2014-06-18T11:28:36.327Z,42.47
2014-06-18T11:29:41.017Z,42.79
2014-06-18T11:30:45.707Z,42.58
2014-06-18T11:31:50.427Z,43.36
2014-06-18T11:32:55.117Z,45
2014-06-18T11:33:59.806Z,44.05
2014-06-18T11:35:04.793Z,43.53
2014-06-18T11:36:09.482Z,42.14
2014-06-18T11:37:14.172Z,43.01
2014-06-18T11:38:19.158Z,45.28
2014-06-18T11:39:23.847Z,44.1
2014-06-18T11:40:28.537Z,42.81
2014-06-18T11:41:33.227Z,40.93
2014-06-18T11:42:37.917Z,39.72
2014-06-18T11:43:42.905Z,39.93
2014-06-18T11:44:47.609Z,39.32
2014-06-18T11:45:52.298Z,39.56
2014-06-18T11:46:56.988Z,38.76
2014-06-18T11:48:01.677Z,40.39
2014-06-18T11:49:06.367Z,39.96
2014-06-18T11:50:11.056Z,38.03
2014-06-18T11:51:15.761Z,39.1
2014-06-18T11:52:20.451Z,38.64
2014-06-18T11:53:25.140Z,38.23
2014-06-18T11:54:30.126Z,38.05
2014-06-18T11:55:34.816Z,37.79
2014-06-18T11:56:39.508Z,37.89
2014-06-18T11:57:44.196Z,37.23
2014-06-18T11:58:48.886Z,36.92
2014-06-18T11:59:53.872Z,37.07
2014-06-18T12:00:58.562Z,37.98
2014-06-18T12:02:03.267Z,38.6
2014-06-18T12:03:08.253Z,38.33
2014-06-18T12:04:12.958Z,38.15
2014-06-18T12:05:17.944Z,39.28
2014-06-18T12:06:22.930Z,40.04
2014-06-18T12:07:27.917Z,42.14
2014-06-18T12:08:32.606Z,40.85
2014-06-18T12:09:37.311Z,40
2014-06-18T12:10:42.299Z,40.05
2014-06-18T12:11:46.989Z,40.79
2014-06-18T12:12:51.678Z,40.01
2014-06-18T12:13:56.383Z,38.66
2014-06-18T12:15:01.073Z,39.07
2014-06-18T12:16:05.776Z,38
2014-06-18T12:17:10.508Z,38.25
2014-06-18T12:18:15.535Z,38.55
2014-06-18T12:19:20.281Z,39.5
2014-06-18T12:20:25.013Z,40.47
2014-06-18T12:21:30.031Z,39.87
2014-06-18T12:22:34.751Z,39.25
2014-06-18T12:23:39.770Z,38.55
2014-06-18T12:24:44.474Z,37.99
2014-06-18T12:25:49.175Z,37.89
2014-06-18T12:26:53.869Z,37.45
2014-06-18T12:27:58.862Z,37.71
2014-06-18T12:29:03.556Z,36.9
2014-06-18T12:30:08.563Z,38.03
2014-06-18T12:31:13.257Z,37.91
2014-06-18T12:32:18.245Z,36.8
2014-06-18T12:33:22.937Z,37.16
2014-06-18T12:34:27.628Z,36.33
2014-06-18T12:35:32.334Z,36.55
2014-06-18T12:36:37.026Z,35.46
2014-06-18T12:37:41.718Z,35.71
2014-06-18T12:38:46.408Z,36.68
2014-06-18T12:39:51.113Z,36.1
2014-06-18T12:40:55.834Z,37.63
2014-06-18T12:42:00.555Z,35.47
2014-06-18T12:43:05.246Z,36.39
2014-06-18T12:44:09.935Z,36.71
2014-06-18T12:45:14.625Z,35.99
2014-06-18T12:46:19.314Z,36.55
2014-06-18T12:47:24.004Z,35.56
2014-06-18T12:48:28.693Z,35.56
2014-06-18T12:49:33.398Z,35.18
2014-06-18T12:50:38.087Z,36.32
2014-06-18T12:51:42.779Z,34.68
2014-06-18T12:52:47.468Z,36
2014-06-18T12:53:52.158Z,35.67
2014-06-18T12:54:56.848Z,35.87
2014-06-18T12:56:01.536Z,35.25
2014-06-18T12:57:06.226Z,34.42
2014-06-18T12:58:10.915Z,36.41
2014-06-18T12:59:15.605Z,35.27
2014-06-18T13:00:20.294Z,34.56
2014-06-18T13:01:24.984Z,35.02
2014-06-18T13:02:29.673Z,35.68
2014-06-18T13:03:34.379Z,36.65
2014-06-18T13:04:39.098Z,36.74
2014-06-18T13:05:43.791Z,36.04
2014-06-18T13:06:48.480Z,37.05
2014-06-18T13:07:53.169Z,38.09
2014-06-18T13:08:57.858Z,37.18
2014-06-18T13:10:01.860Z,37.74
2014-06-18T13:11:06.550Z,36.71
2014-06-18T13:12:11.239Z,36.93
2014-06-18T13:13:15.928Z,37.85
2014-06-18T13:14:19.930Z,37.17
2014-06-18T13:15:24.917Z,37.57
2014-06-18T13:16:29.606Z,36.99
2014-06-18T13:17:34.592Z,37.7
2014-06-18T13:18:39.579Z,38.9
2014-06-18T13:19:44.270Z,36.84
2014-06-18T13:20:48.959Z,37.1
2014-06-18T13:21:53.649Z,36.45
2014-06-18T13:22:58.338Z,36.68
2014-06-18T13:24:03.028Z,36.6
2014-06-18T13:25:07.717Z,37.12
2014-06-18T13:26:12.407Z,36.84
2014-06-18T13:27:17.096Z,36.82
2014-06-18T13:28:21.786Z,36.31
2014-06-18T13:29:26.475Z,37.25
2014-06-18T13:30:31.164Z,37.43
2014-06-18T13:31:35.853Z,37.88
2014-06-18T13:32:40.546Z,38.26
2014-06-18T13:33:45.234Z,39.12
2014-06-18T13:34:49.924Z,38.85
2014-06-18T13:35:54.613Z,38.2
2014-06-18T13:36:59.303Z,38.98
2014-06-18T13:38:03.992Z,39.51
2014-06-18T13:39:08.682Z,39.08
2014-06-18T13:40:13.370Z,39.36
2014-06-18T13:41:18.358Z,39.45
2014-06-18T13:42:23.047Z,38.99
2014-06-18T13:43:27.736Z,39.1
2014-06-18T13:44:32.425Z,38.21
2014-06-18T13:45:37.116Z,38.95
2014-06-18T13:46:41.807Z,37.81
2014-06-18T13:47:46.496Z,37.34
2014-06-18T13:48:51.185Z,37.23
2014-06-18T13:49:55.875Z,37.79
2014-06-18T13:51:00.564Z,37.63
2014-06-18T13:52:05.254Z,38.41
2014-06-18T13:53:09.943Z,38.35
2014-06-18T13:54:13.945Z,37.31
2014-06-18T13:55:18.634Z,37.02
2014-06-18T13:56:23.339Z,36.74